Time;durP1;ratioP1;P1;durP2;ratioP2;P2;SDS_P1;SDS_P2;PMS_P1;PMS_P2;Temp;Humidity;BMP_temperature;BMP_pressure;BME280_temperature;BME280_humidity;BME280_pressure;Samples;Min_cycle;Max_cycle;Signal;HPM_P1;HPM_P2
2021/12/20 00:01:45;;;;;;;;;;;7.50;84.80;;;;;;5031777;28;19909;-86
2021/12/20 00:04:11;;;;;;;;;;;7.40;84.90;;;;;;5015068;28;19913;-85
2021/12/20 00:06:36;;;;;;;;;;;7.40;85.80;;;;;;5032006;28;19963;-85
2021/12/20 00:09:02;;;;;;;;;;;7.30;85.60;;;;;;5012778;28;19913;-86
2021/12/20 00:16:32;;;;;;;;;;;7.50;85.90;;;;;;5076561;28;20317;-87
2021/12/20 00:18:58;;;;;;;;;;;7.40;85.90;;;;;;5058738;28;19908;-87
2021/12/20 00:21:29;;;;;;;;;;;7.40;86.40;;;;;;5058417;28;19909;-86
2021/12/20 00:23:54;;;;;;;;;;;7.30;86.50;;;;;;5039837;28;19959;-87
2021/12/20 00:26:20;;;;;;;;;;;7.30;86.70;;;;;;5047542;28;19920;-87
2021/12/20 00:28:48;;;;;;;;;;;7.40;86.70;;;;;;5040026;28;19912;-87
2021/12/20 00:31:14;;;;;;;;;;;7.40;86.70;;;;;;5027589;28;19918;-87
2021/12/20 00:33:39;;;;;;;;;;;7.40;86.70;;;;;;5027652;28;19913;-87
2021/12/20 00:36:07;;;;;;;;;;;7.40;86.50;;;;;;5034834;28;20059;-87
2021/12/20 00:41:19;;;;;;;;;;;7.40;86.40;;;;;;5053347;28;19915;-88
2021/12/20 00:43:45;;;;;;;;;;;7.40;86.50;;;;;;5037996;28;19920;-88
2021/12/20 00:46:11;;;;;;;;;;;7.30;86.10;;;;;;5037714;28;20007;-87
2021/12/20 00:48:36;;;;;;;;;;;7.40;86.00;;;;;;5037098;28;20290;-87
2021/12/20 00:51:02;;;;;;;;;;;7.40;86.30;;;;;;5037443;28;20011;-87
2021/12/20 00:53:29;;;;;;;;;;;7.30;86.10;;;;;;5040551;28;19977;-88
2021/12/20 00:55:54;;;;;;;;;;;7.30;86.40;;;;;;5043712;28;19917;-88
2021/12/20 00:58:20;;;;;;;;;;;7.40;86.60;;;;;;5036495;28;19916;-88
2021/12/20 01:00:48;;;;;;;;;;;7.40;86.60;;;;;;5035951;28;19912;-87
2021/12/20 01:03:15;;;;;;;;;;;7.40;86.00;;;;;;5054036;28;19948;-88
2021/12/20 01:05:41;;;;;;;;;;;7.40;86.40;;;;;;5054053;28;19988;-87
2021/12/20 01:08:08;;;;;;;;;;;7.40;85.90;;;;;;5054682;28;19975;-88
2021/12/20 01:10:35;;;;;;;;;;;7.40;85.10;;;;;;5036468;28;20183;-87
2021/12/20 01:13:02;;;;;;;;;;;7.40;85.20;;;;;;5040042;28;20067;-88
2021/12/20 01:15:32;;;;;;;;;;;7.40;85.00;;;;;;5053603;28;19916;-87
2021/12/20 01:17:58;;;;;;;;;;;7.30;85.20;;;;;;5035923;28;20286;-87
2021/12/20 01:20:24;;;;;;;;;;;7.30;84.80;;;;;;5034780;28;20359;-86
2021/12/20 01:22:50;;;;;;;;;;;7.20;84.50;;;;;;5040797;28;19959;-87
2021/12/20 01:25:16;;;;;;;;;;;7.20;84.00;;;;;;5054555;28;19980;-87
2021/12/20 01:27:41;;;;;;;;;;;7.10;84.10;;;;;;5067852;28;20180;-89
2021/12/20 01:30:08;;;;;;;;;;;7.30;83.80;;;;;;5070578;28;19897;-87
2021/12/20 01:32:33;;;;;;;;;;;7.30;83.30;;;;;;5054019;28;19917;-87
2021/12/20 01:34:59;;;;;;;;;;;7.30;82.70;;;;;;5036234;28;20340;-87
2021/12/20 01:37:24;;;;;;;;;;;7.30;82.00;;;;;;5074578;28;20012;-87
2021/12/20 01:39:50;;;;;;;;;;;7.30;81.20;;;;;;5042226;28;19916;-86
2021/12/20 01:42:16;;;;;;;;;;;7.30;81.60;;;;;;5017529;28;19959;-87
2021/12/20 01:44:42;;;;;;;;;;;7.10;81.90;;;;;;5033749;28;19913;-87
2021/12/20 01:47:08;;;;;;;;;;;7.10;83.00;;;;;;5015946;28;19916;-87
2021/12/20 01:49:41;;;;;;;;;;;7.10;82.30;;;;;;5014860;28;19920;-87
2021/12/20 01:52:14;;;;;;;;;;;7.10;82.40;;;;;;5033746;28;19913;-87
2021/12/20 01:54:39;;;;;;;;;;;7.10;81.80;;;;;;5034898;28;20319;-87
2021/12/20 01:57:05;;;;;;;;;;;7.10;81.00;;;;;;5052933;28;19971;-87
2021/12/20 01:59:30;;;;;;;;;;;7.10;80.40;;;;;;5051287;28;19913;-87
2021/12/20 02:01:56;;;;;;;;;;;7.10;80.90;;;;;;5034159;28;19967;-87
2021/12/20 02:04:22;;;;;;;;;;;7.10;79.80;;;;;;5053335;28;19912;-87
2021/12/20 02:06:49;;;;;;;;;;;7.00;79.40;;;;;;5035330;28;19986;-86
2021/12/20 02:09:16;;;;;;;;;;;7.00;78.70;;;;;;5052556;28;20011;-87
2021/12/20 02:11:42;;;;;;;;;;;6.90;78.30;;;;;;5033740;28;20012;-87
2021/12/20 02:14:09;;;;;;;;;;;7.00;77.60;;;;;;5019702;28;19913;-88
2021/12/20 02:16:35;;;;;;;;;;;7.00;77.00;;;;;;5028004;28;20355;-87
2021/12/20 02:19:03;;;;;;;;;;;6.90;77.50;;;;;;5052760;28;19997;-87
2021/12/20 02:21:30;;;;;;;;;;;6.70;77.70;;;;;;5052620;28;19909;-87
2021/12/20 02:23:55;;;;;;;;;;;6.80;77.00;;;;;;5035189;28;19920;-87
2021/12/20 02:26:24;;;;;;;;;;;6.70;77.90;;;;;;5051620;28;19909;-86
2021/12/20 02:28:52;;;;;;;;;;;6.80;77.50;;;;;;5036382;28;19916;-88
2021/12/20 02:37:02;;;;;;;;;;;6.70;76.90;;;;;;5051670;28;19931;-87
2021/12/20 02:39:27;;;;;;;;;;;6.60;77.20;;;;;;5035664;28;19916;-88
2021/12/20 02:41:53;;;;;;;;;;;6.50;76.20;;;;;;5052880;28;19966;-87
2021/12/20 02:44:20;;;;;;;;;;;6.60;76.20;;;;;;5035504;28;19913;-87
2021/12/20 02:49:27;;;;;;;;;;;6.80;76.20;;;;;;5060618;28;19962;-87
2021/12/20 02:51:57;;;;;;;;;;;6.80;76.00;;;;;;5055270;28;19913;-87
2021/12/20 02:54:23;;;;;;;;;;;6.90;76.40;;;;;;5039093;28;20298;-87
2021/12/20 02:56:49;;;;;;;;;;;7.00;76.60;;;;;;5051891;28;19913;-88
2021/12/20 02:59:15;;;;;;;;;;;6.90;77.40;;;;;;5035552;28;19909;-87
2021/12/20 03:01:42;;;;;;;;;;;6.80;76.40;;;;;;5035804;28;19956;-87
2021/12/20 03:04:08;;;;;;;;;;;6.80;78.40;;;;;;5037104;28;19947;-87
2021/12/20 03:06:42;;;;;;;;;;;6.90;77.90;;;;;;5055759;28;19935;-87
2021/12/20 03:09:09;;;;;;;;;;;6.90;77.20;;;;;;5037893;28;20658;-87
2021/12/20 03:11:36;;;;;;;;;;;7.00;75.60;;;;;;5056522;28;19909;-87
2021/12/20 03:17:04;;;;;;;;;;;6.80;77.10;;;;;;4975229;28;20076;-87
2021/12/20 03:19:29;;;;;;;;;;;6.70;77.60;;;;;;5021470;28;20012;-88
2021/12/20 03:21:55;;;;;;;;;;;6.80;78.40;;;;;;5037990;28;19966;-87
2021/12/20 03:24:20;;;;;;;;;;;6.80;77.70;;;;;;5037904;28;19917;-87
2021/12/20 03:26:46;;;;;;;;;;;6.90;77.50;;;;;;5051301;28;20295;-87
2021/12/20 03:29:12;;;;;;;;;;;6.80;77.20;;;;;;5034024;28;19909;-87
2021/12/20 03:31:38;;;;;;;;;;;6.80;77.30;;;;;;5037621;28;19938;-87
2021/12/20 03:34:04;;;;;;;;;;;6.80;77.20;;;;;;5049122;28;19999;-88
2021/12/20 03:36:29;;;;;;;;;;;6.80;77.50;;;;;;5039901;28;20328;-88
2021/12/20 03:38:55;;;;;;;;;;;6.80;79.30;;;;;;5038906;28;19913;-88
2021/12/20 03:41:21;;;;;;;;;;;6.80;79.00;;;;;;5038323;28;19913;-87
2021/12/20 03:43:46;;;;;;;;;;;6.90;78.40;;;;;;5037150;28;19917;-86
2021/12/20 03:46:12;;;;;;;;;;;6.90;77.70;;;;;;5055772;28;19923;-87
2021/12/20 03:48:37;;;;;;;;;;;7.00;76.80;;;;;;5037277;28;19991;-87
2021/12/20 03:51:04;;;;;;;;;;;7.10;77.00;;;;;;5043209;28;19927;-88
2021/12/20 03:53:30;;;;;;;;;;;7.00;77.50;;;;;;5047609;28;19940;-87
2021/12/20 03:55:55;;;;;;;;;;;7.00;76.90;;;;;;5035924;28;19917;-87
2021/12/20 03:58:21;;;;;;;;;;;6.80;77.40;;;;;;5063683;28;19972;-88
2021/12/20 04:00:47;;;;;;;;;;;6.80;78.00;;;;;;5058584;28;19901;-88
2021/12/20 04:03:25;;;;;;;;;;;6.60;77.80;;;;;;5040070;28;19928;-87
2021/12/20 04:05:51;;;;;;;;;;;6.70;78.20;;;;;;5057293;28;19944;-87
2021/12/20 04:08:16;;;;;;;;;;;6.60;78.40;;;;;;5053398;28;19907;-89
2021/12/20 04:10:42;;;;;;;;;;;6.60;78.20;;;;;;5057440;28;19917;-87
2021/12/20 04:13:09;;;;;;;;;;;6.60;78.70;;;;;;5038645;28;19960;-88
2021/12/20 04:15:35;;;;;;;;;;;6.80;78.30;;;;;;5037261;28;19939;-87
2021/12/20 04:18:00;;;;;;;;;;;6.80;77.30;;;;;;5037752;28;19909;-87
2021/12/20 04:20:26;;;;;;;;;;;6.90;78.00;;;;;;5036735;28;19916;-87
2021/12/20 04:22:51;;;;;;;;;;;6.70;78.20;;;;;;5038446;28;20389;-87
2021/12/20 04:25:16;;;;;;;;;;;6.70;77.90;;;;;;5033705;28;19913;-87
2021/12/20 04:27:42;;;;;;;;;;;6.50;78.70;;;;;;5031251;28;19916;-87
2021/12/20 04:30:10;;;;;;;;;;;6.70;78.20;;;;;;5035969;28;19917;-86
2021/12/20 04:32:40;;;;;;;;;;;6.40;78.70;;;;;;5046246;28;19913;-87
2021/12/20 04:35:06;;;;;;;;;;;6.30;80.00;;;;;;5037439;28;20379;-87
2021/12/20 04:37:33;;;;;;;;;;;6.50;79.10;;;;;;5035935;28;19934;-88
2021/12/20 04:40:00;;;;;;;;;;;6.50;79.50;;;;;;5036201;28;20007;-87
2021/12/20 04:42:25;;;;;;;;;;;6.30;79.70;;;;;;5036689;28;19913;-87
2021/12/20 04:44:51;;;;;;;;;;;6.20;80.10;;;;;;5036055;28;20306;-87
2021/12/20 04:47:16;;;;;;;;;;;6.30;80.00;;;;;;5036572;28;19908;-87
2021/12/20 04:49:42;;;;;;;;;;;6.30;80.60;;;;;;5044296;28;19916;-87
2021/12/20 04:52:07;;;;;;;;;;;6.30;80.50;;;;;;5032231;28;19947;-87
2021/12/20 04:54:33;;;;;;;;;;;6.30;80.20;;;;;;5038768;28;19967;-87
2021/12/20 04:56:58;;;;;;;;;;;6.30;80.60;;;;;;5050833;28;19907;-87
2021/12/20 04:59:24;;;;;;;;;;;6.40;80.40;;;;;;5050922;28;19920;-87
2021/12/20 05:01:49;;;;;;;;;;;6.30;80.00;;;;;;5052406;28;19917;-87
2021/12/20 05:04:14;;;;;;;;;;;6.30;80.00;;;;;;5055033;28;19925;-87
2021/12/20 05:06:40;;;;;;;;;;;6.20;80.40;;;;;;5038632;28;19936;-87
2021/12/20 05:09:06;;;;;;;;;;;6.10;80.50;;;;;;5036031;28;19913;-87
2021/12/20 05:11:34;;;;;;;;;;;6.00;80.90;;;;;;5036102;28;19909;-87
2021/12/20 05:14:02;;;;;;;;;;;6.00;81.10;;;;;;5036026;28;19919;-87
2021/12/20 05:16:28;;;;;;;;;;;6.00;81.50;;;;;;5036408;28;20318;-85
2021/12/20 05:18:54;;;;;;;;;;;6.00;81.60;;;;;;5027095;28;19924;-87
2021/12/20 05:21:19;;;;;;;;;;;6.00;81.40;;;;;;5033683;28;20379;-87
2021/12/20 05:23:45;;;;;;;;;;;5.90;81.80;;;;;;5039098;28;19924;-87
2021/12/20 05:26:10;;;;;;;;;;;5.90;82.20;;;;;;5049365;28;20248;-87
2021/12/20 05:28:36;;;;;;;;;;;5.80;81.80;;;;;;5042886;28;19952;-86
2021/12/20 05:31:01;;;;;;;;;;;5.60;82.10;;;;;;5040309;28;19927;-87
2021/12/20 05:33:27;;;;;;;;;;;5.70;82.40;;;;;;5042784;28;19908;-87
2021/12/20 05:35:53;;;;;;;;;;;5.60;82.70;;;;;;5037801;28;19960;-87
2021/12/20 05:38:19;;;;;;;;;;;5.60;82.80;;;;;;5036647;28;19912;-87
2021/12/20 05:40:44;;;;;;;;;;;5.60;83.00;;;;;;5036531;28;20333;-87
2021/12/20 05:43:10;;;;;;;;;;;5.50;83.20;;;;;;5035623;28;20012;-87
2021/12/20 05:45:35;;;;;;;;;;;5.50;83.30;;;;;;5045374;28;20390;-86
2021/12/20 05:48:02;;;;;;;;;;;5.50;83.50;;;;;;5035064;28;20291;-87
2021/12/20 05:50:27;;;;;;;;;;;5.40;83.50;;;;;;5035046;28;19908;-87
2021/12/20 05:52:53;;;;;;;;;;;5.40;83.40;;;;;;5034899;28;19962;-87
2021/12/20 05:55:18;;;;;;;;;;;5.40;83.40;;;;;;5033383;28;19937;-87
2021/12/20 05:57:44;;;;;;;;;;;5.40;83.40;;;;;;5044167;28;20180;-86
2021/12/20 06:00:20;;;;;;;;;;;5.20;83.70;;;;;;5051429;28;19909;-87
2021/12/20 06:02:50;;;;;;;;;;;5.10;84.10;;;;;;5050532;28;20016;-87
2021/12/20 06:05:15;;;;;;;;;;;5.10;84.10;;;;;;5052449;28;19909;-87
2021/12/20 06:07:42;;;;;;;;;;;5.10;84.10;;;;;;5052572;28;19913;-86
2021/12/20 06:10:11;;;;;;;;;;;5.10;84.30;;;;;;5044141;28;20003;-89
2021/12/20 06:12:39;;;;;;;;;;;5.10;84.60;;;;;;5040595;28;19917;-88
2021/12/20 06:15:05;;;;;;;;;;;5.00;84.70;;;;;;5061847;22;19925;-82
2021/12/20 06:17:30;;;;;;;;;;;4.90;84.70;;;;;;5054400;28;19935;-82
2021/12/20 06:19:55;;;;;;;;;;;4.90;84.60;;;;;;5038135;28;19980;-81
2021/12/20 06:22:21;;;;;;;;;;;4.90;85.00;;;;;;5022656;28;19932;-83
2021/12/20 06:24:46;;;;;;;;;;;4.80;84.90;;;;;;5026031;28;20011;-84
2021/12/20 06:27:12;;;;;;;;;;;4.80;84.80;;;;;;5033749;28;19976;-85
2021/12/20 06:29:37;;;;;;;;;;;4.80;84.70;;;;;;5024712;28;19917;-82
2021/12/20 06:32:03;;;;;;;;;;;4.80;84.80;;;;;;5023303;28;19913;-84
2021/12/20 06:34:29;;;;;;;;;;;4.80;84.80;;;;;;5031701;28;19919;-84
2021/12/20 06:36:54;;;;;;;;;;;4.70;84.80;;;;;;5038971;28;19919;-83
2021/12/20 06:39:20;;;;;;;;;;;4.70;85.10;;;;;;5023848;28;19920;-82
2021/12/20 06:41:45;;;;;;;;;;;4.60;85.20;;;;;;5020075;28;19937;-84
2021/12/20 06:44:11;;;;;;;;;;;4.60;85.20;;;;;;5020090;28;19917;-82
2021/12/20 06:46:38;;;;;;;;;;;4.50;85.50;;;;;;5030533;28;19924;-82
2021/12/20 06:49:05;;;;;;;;;;;4.50;85.10;;;;;;5055903;28;19971;-83
2021/12/20 06:51:33;;;;;;;;;;;4.50;85.30;;;;;;5026892;28;19935;-83
2021/12/20 06:53:58;;;;;;;;;;;4.40;84.90;;;;;;5044864;28;19913;-87
2021/12/20 06:56:24;;;;;;;;;;;4.40;85.50;;;;;;5041764;28;19913;-84
2021/12/20 06:58:53;;;;;;;;;;;4.50;85.50;;;;;;5021139;28;19913;-83
2021/12/20 07:01:18;;;;;;;;;;;4.50;85.60;;;;;;5028991;28;20391;-84
2021/12/20 07:03:45;;;;;;;;;;;4.50;85.70;;;;;;5051381;28;19935;-84
2021/12/20 07:06:11;;;;;;;;;;;4.50;85.70;;;;;;5021577;28;20514;-84
2021/12/20 07:08:36;;;;;;;;;;;4.40;85.50;;;;;;5016129;28;19913;-87
2021/12/20 07:11:02;;;;;;;;;;;4.40;85.60;;;;;;5017990;28;19949;-84
2021/12/20 07:13:27;;;;;;;;;;;4.40;85.50;;;;;;5015298;28;20395;-86
2021/12/20 07:15:53;;;;;;;;;;;4.30;85.60;;;;;;5032550;28;20400;-86
2021/12/20 07:18:18;;;;;;;;;;;4.20;86.10;;;;;;5024853;28;19909;-86
2021/12/20 07:20:43;;;;;;;;;;;4.30;86.10;;;;;;5052038;28;20355;-85
2021/12/20 07:23:09;;;;;;;;;;;4.20;85.70;;;;;;5037761;28;19921;-87
2021/12/20 07:25:34;;;;;;;;;;;4.20;85.80;;;;;;5016174;28;19913;-85
2021/12/20 07:28:00;;;;;;;;;;;4.20;85.80;;;;;;5036130;28;19937;-85
2021/12/20 07:30:25;;;;;;;;;;;4.20;86.10;;;;;;5019453;28;19913;-85
2021/12/20 07:32:51;;;;;;;;;;;4.20;86.00;;;;;;5016142;28;19917;-84
2021/12/20 07:35:17;;;;;;;;;;;4.20;85.70;;;;;;5036634;28;19913;-83
2021/12/20 07:37:43;;;;;;;;;;;4.20;86.00;;;;;;5035710;28;19917;-84
2021/12/20 07:40:09;;;;;;;;;;;4.10;85.90;;;;;;5016591;28;19913;-83
2021/12/20 07:42:34;;;;;;;;;;;4.10;86.30;;;;;;5050322;28;19959;-84
2021/12/20 07:45:00;;;;;;;;;;;4.10;85.90;;;;;;5073268;28;19909;-85
2021/12/20 07:47:25;;;;;;;;;;;4.10;85.70;;;;;;5037214;28;19897;-85
2021/12/20 07:49:51;;;;;;;;;;;4.00;85.80;;;;;;5016995;28;19917;-84
2021/12/20 07:52:16;;;;;;;;;;;3.90;85.60;;;;;;5016686;28;19948;-85
2021/12/20 07:54:42;;;;;;;;;;;4.00;85.40;;;;;;5016600;28;20303;-84
2021/12/20 07:57:07;;;;;;;;;;;3.90;85.60;;;;;;5032966;28;19909;-83
2021/12/20 07:59:32;;;;;;;;;;;3.80;85.50;;;;;;5038612;28;19920;-84
2021/12/20 08:01:58;;;;;;;;;;;3.90;85.70;;;;;;5035023;28;20539;-84
2021/12/20 08:04:23;;;;;;;;;;;3.90;85.60;;;;;;5020894;28;19935;-84
2021/12/20 08:06:49;;;;;;;;;;;3.80;85.70;;;;;;5039358;28;19906;-83
2021/12/20 08:09:33;;;;;;;;;;;3.70;85.60;;;;;;5022588;28;19913;-84
2021/12/20 08:11:59;;;;;;;;;;;3.70;85.60;;;;;;5015999;28;19929;-84
2021/12/20 08:14:24;;;;;;;;;;;3.70;85.70;;;;;;5015622;28;19917;-84
2021/12/20 08:16:50;;;;;;;;;;;3.60;85.80;;;;;;5015796;28;19917;-83
2021/12/20 08:19:15;;;;;;;;;;;3.70;85.40;;;;;;5031294;28;19960;-84
2021/12/20 08:21:41;;;;;;;;;;;3.70;85.50;;;;;;5036887;28;19909;-85
2021/12/20 08:24:06;;;;;;;;;;;3.70;85.50;;;;;;5033125;28;19925;-83
2021/12/20 08:26:31;;;;;;;;;;;3.70;85.60;;;;;;5017079;28;20682;-84
2021/12/20 08:28:57;;;;;;;;;;;3.60;85.90;;;;;;5037352;28;20549;-84
2021/12/20 08:31:23;;;;;;;;;;;3.70;86.30;;;;;;5043850;28;19948;-85
2021/12/20 08:33:50;;;;;;;;;;;3.70;86.20;;;;;;5032108;28;20004;-83
2021/12/20 08:36:15;;;;;;;;;;;3.70;86.60;;;;;;5025323;28;20375;-84
2021/12/20 08:38:41;;;;;;;;;;;3.70;86.20;;;;;;5018506;28;19959;-84
2021/12/20 08:41:07;;;;;;;;;;;3.80;86.20;;;;;;5018413;28;19949;-84
2021/12/20 08:43:32;;;;;;;;;;;3.80;85.80;;;;;;5035669;28;20397;-82
2021/12/20 08:45:59;;;;;;;;;;;3.90;86.40;;;;;;5018191;28;20291;-84
2021/12/20 08:48:25;;;;;;;;;;;3.90;86.10;;;;;;5035676;28;19999;-83
2021/12/20 08:50:51;;;;;;;;;;;3.90;86.10;;;;;;5017174;28;19968;-83
2021/12/20 08:53:17;;;;;;;;;;;4.00;86.10;;;;;;5018645;28;20291;-84
2021/12/20 08:55:43;;;;;;;;;;;4.00;86.50;;;;;;5034440;28;20003;-84
2021/12/20 08:58:08;;;;;;;;;;;4.10;86.80;;;;;;5040789;28;20327;-84
2021/12/20 09:00:36;;;;;;;;;;;4.20;86.50;;;;;;5035194;28;19913;-83
2021/12/20 09:03:02;;;;;;;;;;;4.10;86.80;;;;;;5016978;28;19920;-84
2021/12/20 09:05:29;;;;;;;;;;;4.20;87.00;;;;;;5033157;28;19933;-82
2021/12/20 09:07:57;;;;;;;;;;;4.30;86.70;;;;;;5021156;28;19913;-84
2021/12/20 09:10:22;;;;;;;;;;;4.30;86.70;;;;;;5051014;28;19932;-83
2021/12/20 09:12:48;;;;;;;;;;;4.30;86.60;;;;;;5014381;28;20371;-83
2021/12/20 09:15:16;;;;;;;;;;;4.40;86.70;;;;;;5030843;28;19999;-86
2021/12/20 09:17:42;;;;;;;;;;;4.50;86.80;;;;;;5013606;28;19920;-86
2021/12/20 09:20:09;;;;;;;;;;;4.50;86.70;;;;;;5013545;28;20007;-89
2021/12/20 09:22:39;;;;;;;;;;;4.30;86.70;;;;;;5022029;28;20298;-87
2021/12/20 09:25:05;;;;;;;;;;;4.50;87.10;;;;;;5040255;28;19913;-86
2021/12/20 09:27:31;;;;;;;;;;;4.60;86.90;;;;;;5013407;28;19916;-88
2021/12/20 09:29:56;;;;;;;;;;;4.70;86.40;;;;;;5029384;28;19921;-88
2021/12/20 09:32:21;;;;;;;;;;;4.50;86.50;;;;;;5022583;28;19920;-88
2021/12/20 09:34:47;;;;;;;;;;;4.30;86.80;;;;;;5037197;28;19913;-88
2021/12/20 09:37:12;;;;;;;;;;;4.20;87.30;;;;;;5013977;28;19920;-88
2021/12/20 09:39:39;;;;;;;;;;;4.10;87.50;;;;;;5013854;28;19913;-88
2021/12/20 09:42:05;;;;;;;;;;;4.20;87.80;;;;;;5034422;28;19909;-88
2021/12/20 09:44:32;;;;;;;;;;;4.10;88.00;;;;;;5022565;28;19916;-87
2021/12/20 09:46:58;;;;;;;;;;;4.10;88.30;;;;;;5031236;28;19924;-87
2021/12/20 09:49:24;;;;;;;;;;;4.20;88.20;;;;;;5013642;28;19917;-88
2021/12/20 09:51:50;;;;;;;;;;;4.20;88.10;;;;;;5013980;28;19982;-87
2021/12/20 09:54:16;;;;;;;;;;;4.20;88.10;;;;;;5015231;28;19920;-86
2021/12/20 09:56:41;;;;;;;;;;;4.30;87.90;;;;;;5042525;28;19948;-85
2021/12/20 09:59:09;;;;;;;;;;;4.30;88.10;;;;;;5042238;28;19909;-85
2021/12/20 10:01:35;;;;;;;;;;;4.30;87.40;;;;;;5012279;28;20361;-87
2021/12/20 10:04:02;;;;;;;;;;;4.30;87.60;;;;;;5013778;28;19948;-86
2021/12/20 10:06:30;;;;;;;;;;;4.40;87.50;;;;;;5030136;28;21540;-86
2021/12/20 10:09:00;;;;;;;;;;;4.40;87.60;;;;;;5012519;28;19920;-87
2021/12/20 10:11:27;;;;;;;;;;;4.40;87.70;;;;;;5018136;28;19966;-86
2021/12/20 10:14:07;;;;;;;;;;;4.50;87.60;;;;;;5020179;28;19995;-87
2021/12/20 10:16:34;;;;;;;;;;;4.50;87.50;;;;;;5025611;28;20005;-86
2021/12/20 10:19:00;;;;;;;;;;;4.60;86.70;;;;;;5038199;28;19908;-85
2021/12/20 10:21:42;;;;;;;;;;;4.60;86.50;;;;;;5056277;28;19917;-85
2021/12/20 10:24:07;;;;;;;;;;;4.60;86.50;;;;;;5038044;28;19971;-87
2021/12/20 10:26:37;;;;;;;;;;;4.60;86.00;;;;;;5035347;28;19909;-86
2021/12/20 10:29:15;;;;;;;;;;;4.70;85.90;;;;;;5027089;28;19921;-86
2021/12/20 10:31:40;;;;;;;;;;;4.70;85.80;;;;;;5031661;28;19909;-86
2021/12/20 10:34:06;;;;;;;;;;;4.70;85.60;;;;;;5031686;28;19924;-85
2021/12/20 10:36:32;;;;;;;;;;;4.80;85.60;;;;;;5032192;28;19909;-84
2021/12/20 10:38:58;;;;;;;;;;;4.80;85.80;;;;;;5013679;28;19919;-87
2021/12/20 10:41:33;;;;;;;;;;;4.80;85.50;;;;;;5031935;28;19913;-87
2021/12/20 10:44:01;;;;;;;;;;;4.80;85.60;;;;;;5046582;28;20002;-86
2021/12/20 10:46:30;;;;;;;;;;;4.80;85.30;;;;;;5043123;28;19913;-85
2021/12/20 10:48:58;;;;;;;;;;;4.90;85.10;;;;;;5013716;28;20379;-86
2021/12/20 10:51:25;;;;;;;;;;;4.90;85.10;;;;;;5014410;28;19948;-87
2021/12/20 10:53:58;;;;;;;;;;;4.80;84.50;;;;;;5015773;28;19921;-86
2021/12/20 10:56:24;;;;;;;;;;;4.90;84.70;;;;;;5038124;28;19905;-87
2021/12/20 10:58:49;;;;;;;;;;;5.00;85.30;;;;;;5037159;28;19919;-86
2021/12/20 11:01:36;;;;;;;;;;;5.00;85.30;;;;;;5020070;28;20243;-86
2021/12/20 11:04:07;;;;;;;;;;;5.10;85.40;;;;;;5011785;28;19917;-87
2021/12/20 11:09:20;;;;;;;;;;;5.10;84.20;;;;;;5021719;28;19917;-86
2021/12/20 11:11:50;;;;;;;;;;;5.10;84.10;;;;;;5015333;28;19917;-86
2021/12/20 11:14:17;;;;;;;;;;;5.10;83.80;;;;;;5021059;28;20008;-86
2021/12/20 11:16:44;;;;;;;;;;;5.10;84.00;;;;;;5016970;28;20342;-84
2021/12/20 11:19:09;;;;;;;;;;;5.20;83.60;;;;;;5038011;28;19940;-85
2021/12/20 11:21:36;;;;;;;;;;;5.40;83.50;;;;;;5040644;28;19913;-86
2021/12/20 11:24:02;;;;;;;;;;;5.50;82.60;;;;;;5033523;28;20596;-86
2021/12/20 11:26:28;;;;;;;;;;;5.60;82.10;;;;;;5034219;28;20031;-86
2021/12/20 11:28:57;;;;;;;;;;;5.60;81.90;;;;;;5016115;28;19960;-86
2021/12/20 11:31:23;;;;;;;;;;;5.60;82.00;;;;;;5019569;28;20000;-88
2021/12/20 11:33:48;;;;;;;;;;;5.60;81.30;;;;;;5036370;28;19963;-85
2021/12/20 11:36:14;;;;;;;;;;;5.60;81.40;;;;;;5034679;28;19913;-87
2021/12/20 11:38:39;;;;;;;;;;;5.50;81.10;;;;;;5033149;28;19913;-87
2021/12/20 11:41:05;;;;;;;;;;;5.50;81.60;;;;;;5016885;28;19949;-86
2021/12/20 11:43:31;;;;;;;;;;;5.50;81.80;;;;;;5034110;28;20378;-86
2021/12/20 11:45:58;;;;;;;;;;;5.50;80.20;;;;;;5034675;28;19993;-86
2021/12/20 11:48:24;;;;;;;;;;;5.50;78.40;;;;;;5019293;28;19917;-87
2021/12/20 11:50:54;;;;;;;;;;;5.50;78.70;;;;;;5016959;28;20051;-86
2021/12/20 11:53:20;;;;;;;;;;;5.60;78.90;;;;;;5034344;28;20027;-87
2021/12/20 11:55:52;;;;;;;;;;;5.50;77.80;;;;;;5015171;28;19993;-86
2021/12/20 11:58:21;;;;;;;;;;;5.60;78.30;;;;;;5034220;28;20433;-85
2021/12/20 12:00:47;;;;;;;;;;;5.50;78.20;;;;;;5029440;28;20379;-86
2021/12/20 12:03:16;;;;;;;;;;;5.50;76.50;;;;;;5043037;28;20307;-84
2021/12/20 12:05:44;;;;;;;;;;;5.50;77.40;;;;;;5024692;28;19920;-85
2021/12/20 12:08:23;;;;;;;;;;;5.60;76.60;;;;;;5028141;28;19974;-86
2021/12/20 12:10:51;;;;;;;;;;;5.60;76.30;;;;;;5023057;28;20454;-85
2021/12/20 12:13:18;;;;;;;;;;;5.60;74.50;;;;;;5057172;28;20014;-85
2021/12/20 12:15:50;;;;;;;;;;;5.70;76.20;;;;;;5035153;28;19999;-84
2021/12/20 12:18:16;;;;;;;;;;;5.70;74.40;;;;;;5032178;28;19991;-86
2021/12/20 12:20:44;;;;;;;;;;;5.60;74.20;;;;;;5031011;28;19936;-86
2021/12/20 12:23:26;;;;;;;;;;;5.70;73.90;;;;;;5020957;28;19917;-87
2021/12/20 12:25:53;;;;;;;;;;;5.70;73.00;;;;;;5034519;28;19909;-86
2021/12/20 12:28:20;;;;;;;;;;;5.70;72.10;;;;;;5016610;28;19959;-87
2021/12/20 12:31:05;;;;;;;;;;;5.70;71.50;;;;;;5016559;28;19909;-86
2021/12/20 12:33:32;;;;;;;;;;;5.70;69.60;;;;;;5012920;28;19920;-87
2021/12/20 12:36:00;;;;;;;;;;;5.80;70.20;;;;;;5024749;28;20287;-86
2021/12/20 12:38:35;;;;;;;;;;;5.80;69.50;;;;;;4997487;28;19914;-86
2021/12/20 12:41:07;;;;;;;;;;;5.90;67.90;;;;;;5036234;28;19908;-87
2021/12/20 12:43:48;;;;;;;;;;;5.80;67.80;;;;;;5032210;28;19917;-87
2021/12/20 12:46:13;;;;;;;;;;;5.80;69.60;;;;;;5050921;28;20467;-87
2021/12/20 12:48:43;;;;;;;;;;;5.90;66.60;;;;;;5054909;28;19932;-88
2021/12/20 12:51:12;;;;;;;;;;;5.90;67.80;;;;;;5067753;28;19902;-88
2021/12/20 12:53:44;;;;;;;;;;;5.90;68.30;;;;;;5033604;28;20205;-91
2021/12/20 12:56:40;;;;;;;;;;;5.90;66.30;;;;;;5031184;28;19917;-89
2021/12/20 12:59:19;;;;;;;;;;;5.80;66.60;;;;;;5003327;28;20398;-89
2021/12/20 13:01:57;;;;;;;;;;;5.80;66.30;;;;;;5015682;28;19986;-88
2021/12/20 13:04:41;;;;;;;;;;;5.80;64.80;;;;;;5042625;28;19917;-89
2021/12/20 13:07:07;;;;;;;;;;;5.80;65.50;;;;;;5037925;28;19983;-88
2021/12/20 13:09:38;;;;;;;;;;;5.80;63.50;;;;;;5033235;28;20572;-87
2021/12/20 13:12:07;;;;;;;;;;;5.80;65.30;;;;;;5019665;28;19913;-89
2021/12/20 13:14:49;;;;;;;;;;;5.90;64.60;;;;;;5017301;28;19928;-87
2021/12/20 13:17:33;;;;;;;;;;;5.80;64.80;;;;;;5015469;28;19920;-87
2021/12/20 13:20:19;;;;;;;;;;;5.70;66.80;;;;;;5032300;28;19909;-87
2021/12/20 13:22:53;;;;;;;;;;;5.70;67.90;;;;;;5032006;28;19937;-88
2021/12/20 13:25:34;;;;;;;;;;;5.70;64.90;;;;;;5048789;28;19913;-87
2021/12/20 13:27:59;;;;;;;;;;;5.70;65.10;;;;;;5047368;28;19924;-88
2021/12/20 13:30:32;;;;;;;;;;;5.80;64.30;;;;;;5043899;28;19924;-88
2021/12/20 13:32:58;;;;;;;;;;;5.70;66.00;;;;;;5049295;28;19982;-88
2021/12/20 13:35:24;;;;;;;;;;;5.70;65.10;;;;;;5033767;28;19944;-87
2021/12/20 13:37:50;;;;;;;;;;;5.70;65.00;;;;;;5015500;28;19917;-87
2021/12/20 13:40:16;;;;;;;;;;;5.60;66.60;;;;;;5015635;28;20012;-87
2021/12/20 13:42:49;;;;;;;;;;;5.70;64.20;;;;;;5015963;28;19909;-87
2021/12/20 13:45:14;;;;;;;;;;;5.60;65.60;;;;;;5015704;28;20437;-89
2021/12/20 13:47:41;;;;;;;;;;;5.60;67.10;;;;;;5044256;28;19912;-87
2021/12/20 13:50:17;;;;;;;;;;;5.60;65.80;;;;;;5041475;28;19921;-87
2021/12/20 13:52:46;;;;;;;;;;;5.50;67.00;;;;;;5015059;28;19913;-87
2021/12/20 13:55:12;;;;;;;;;;;5.50;65.40;;;;;;5014874;28;19992;-88
2021/12/20 13:57:38;;;;;;;;;;;5.50;64.60;;;;;;5015078;28;20366;-87
2021/12/20 14:00:08;;;;;;;;;;;5.50;64.60;;;;;;5015272;28;19913;-87
2021/12/20 14:02:35;;;;;;;;;;;5.50;65.10;;;;;;5033631;28;19956;-88
2021/12/20 14:05:13;;;;;;;;;;;5.40;65.00;;;;;;5013407;28;19936;-88
2021/12/20 14:07:42;;;;;;;;;;;5.30;65.80;;;;;;5047072;28;19913;-86
2021/12/20 14:10:10;;;;;;;;;;;5.30;65.00;;;;;;5013941;28;19914;-88
2021/12/20 14:12:41;;;;;;;;;;;5.30;63.80;;;;;;5032043;28;19909;-88
2021/12/20 14:15:10;;;;;;;;;;;5.40;63.80;;;;;;5037120;28;19921;-88
2021/12/20 14:17:51;;;;;;;;;;;5.30;63.80;;;;;;5033650;28;19955;-88
2021/12/20 14:20:17;;;;;;;;;;;5.20;63.80;;;;;;5024712;28;19945;-82
2021/12/20 14:22:55;;;;;;;;;;;5.10;65.30;;;;;;5043863;28;19913;-86
2021/12/20 14:25:28;;;;;;;;;;;5.00;66.00;;;;;;5013895;28;19917;-86
2021/12/20 14:28:04;;;;;;;;;;;5.00;65.90;;;;;;5014334;28;20283;-85
2021/12/20 14:30:30;;;;;;;;;;;5.00;64.90;;;;;;5033119;28;19932;-86
2021/12/20 14:32:56;;;;;;;;;;;5.00;64.50;;;;;;5032482;28;19909;-85
2021/12/20 14:35:27;;;;;;;;;;;5.00;63.50;;;;;;5034804;28;19920;-84
2021/12/20 14:37:53;;;;;;;;;;;5.00;64.10;;;;;;5036912;28;19913;-84
2021/12/20 14:40:37;;;;;;;;;;;4.90;63.20;;;;;;5018183;28;19920;-85
2021/12/20 14:43:07;;;;;;;;;;;4.80;63.40;;;;;;5036630;28;19920;-84
2021/12/20 14:45:33;;;;;;;;;;;4.90;62.60;;;;;;5057625;28;19962;-83
2021/12/20 14:48:20;;;;;;;;;;;4.80;64.00;;;;;;5057441;28;19909;-84
2021/12/20 14:50:47;;;;;;;;;;;4.80;65.60;;;;;;5044898;28;19913;-83
2021/12/20 14:53:13;;;;;;;;;;;4.70;65.70;;;;;;5022218;28;19983;-83
2021/12/20 14:55:39;;;;;;;;;;;4.70;64.80;;;;;;5033163;28;19909;-84